sensor_id;sensor_type;location;lat;lon;timestamp;P1;durP1;ratioP1;P2;durP2;ratioP2
80392;SDS011;69719;45.544;10.218;2023-12-07T00:00:03;16.83;;;8.77;;
80392;SDS011;69719;45.544;10.218;2023-12-07T00:02:31;16.08;;;8.25;;
80392;SDS011;69719;45.544;10.218;2023-12-07T00:04:57;16.95;;;8.50;;
80392;SDS011;69719;45.544;10.218;2023-12-07T00:07:22;17.08;;;8.20;;
80392;SDS011;69719;45.544;10.218;2023-12-07T00:09:48;15.90;;;7.75;;
80392;SDS011;69719;45.544;10.218;2023-12-07T00:12:13;14.15;;;7.53;;
80392;SDS011;69719;45.544;10.218;2023-12-07T00:14:39;14.98;;;7.47;;
80392;SDS011;69719;45.544;10.218;2023-12-07T00:17:04;17.17;;;7.30;;
80392;SDS011;69719;45.544;10.218;2023-12-07T00:19:30;16.10;;;6.70;;
80392;SDS011;69719;45.544;10.218;2023-12-07T00:21:55;12.02;;;6.60;;
80392;SDS011;69719;45.544;10.218;2023-12-07T00:24:21;15.30;;;6.95;;
80392;SDS011;69719;45.544;10.218;2023-12-07T00:26:47;15.40;;;6.95;;
80392;SDS011;69719;45.544;10.218;2023-12-07T00:29:13;11.82;;;6.72;;
80392;SDS011;69719;45.544;10.218;2023-12-07T00:31:38;15.10;;;6.78;;
80392;SDS011;69719;45.544;10.218;2023-12-07T00:34:04;11.02;;;6.10;;
80392;SDS011;69719;45.544;10.218;2023-12-07T00:36:30;12.52;;;6.25;;
80392;SDS011;69719;45.544;10.218;2023-12-07T00:38:56;13.68;;;6.60;;
80392;SDS011;69719;45.544;10.218;2023-12-07T00:41:21;13.38;;;7.03;;
80392;SDS011;69719;45.544;10.218;2023-12-07T00:43:47;13.43;;;6.50;;
80392;SDS011;69719;45.544;10.218;2023-12-07T00:46:13;12.60;;;6.18;;
80392;SDS011;69719;45.544;10.218;2023-12-07T00:48:38;13.27;;;6.95;;
80392;SDS011;69719;45.544;10.218;2023-12-07T00:51:05;13.05;;;6.13;;
80392;SDS011;69719;45.544;10.218;2023-12-07T00:53:33;13.57;;;6.07;;
80392;SDS011;69719;45.544;10.218;2023-12-07T00:55:59;10.43;;;5.97;;
80392;SDS011;69719;45.544;10.218;2023-12-07T00:58:24;10.85;;;5.63;;
80392;SDS011;69719;45.544;10.218;2023-12-07T01:00:50;14.32;;;5.57;;
80392;SDS011;69719;45.544;10.218;2023-12-07T01:03:16;15.13;;;6.40;;
80392;SDS011;69719;45.544;10.218;2023-12-07T01:05:42;10.98;;;5.10;;
80392;SDS011;69719;45.544;10.218;2023-12-07T01:08:07;11.95;;;5.25;;
80392;SDS011;69719;45.544;10.218;2023-12-07T01:10:33;12.00;;;5.47;;
80392;SDS011;69719;45.544;10.218;2023-12-07T01:12:58;11.55;;;6.45;;
80392;SDS011;69719;45.544;10.218;2023-12-07T01:15:24;17.02;;;6.47;;
80392;SDS011;69719;45.544;10.218;2023-12-07T01:17:49;10.60;;;5.50;;
80392;SDS011;69719;45.544;10.218;2023-12-07T01:20:15;12.23;;;5.22;;
80392;SDS011;69719;45.544;10.218;2023-12-07T01:22:42;12.82;;;5.97;;
80392;SDS011;69719;45.544;10.218;2023-12-07T01:25:07;9.98;;;5.70;;
80392;SDS011;69719;45.544;10.218;2023-12-07T01:27:33;12.38;;;5.50;;
80392;SDS011;69719;45.544;10.218;2023-12-07T01:29:59;9.55;;;5.10;;
80392;SDS011;69719;45.544;10.218;2023-12-07T01:32:25;13.45;;;5.93;;
80392;SDS011;69719;45.544;10.218;2023-12-07T01:34:50;10.50;;;5.95;;
80392;SDS011;69719;45.544;10.218;2023-12-07T01:37:16;11.85;;;5.80;;
80392;SDS011;69719;45.544;10.218;2023-12-07T01:39:42;10.60;;;5.68;;
80392;SDS011;69719;45.544;10.218;2023-12-07T01:42:08;9.30;;;5.15;;
80392;SDS011;69719;45.544;10.218;2023-12-07T01:44:34;10.27;;;5.10;;
80392;SDS011;69719;45.544;10.218;2023-12-07T01:47:00;15.95;;;6.85;;
80392;SDS011;69719;45.544;10.218;2023-12-07T01:49:26;9.80;;;4.97;;
80392;SDS011;69719;45.544;10.218;2023-12-07T01:51:53;11.13;;;4.70;;
80392;SDS011;69719;45.544;10.218;2023-12-07T01:54:19;12.38;;;5.78;;
80392;SDS011;69719;45.544;10.218;2023-12-07T01:56:45;9.82;;;4.90;;
80392;SDS011;69719;45.544;10.218;2023-12-07T01:59:11;7.97;;;4.97;;
80392;SDS011;69719;45.544;10.218;2023-12-07T02:01:36;11.77;;;5.07;;
80392;SDS011;69719;45.544;10.218;2023-12-07T02:04:02;13.00;;;5.70;;
80392;SDS011;69719;45.544;10.218;2023-12-07T02:06:28;10.15;;;5.35;;
80392;SDS011;69719;45.544;10.218;2023-12-07T02:08:53;10.07;;;4.85;;
80392;SDS011;69719;45.544;10.218;2023-12-07T02:11:19;12.73;;;5.47;;
80392;SDS011;69719;45.544;10.218;2023-12-07T02:13:45;9.23;;;5.07;;
80392;SDS011;69719;45.544;10.218;2023-12-07T02:16:13;11.15;;;4.65;;
80392;SDS011;69719;45.544;10.218;2023-12-07T02:18:51;8.93;;;5.05;;
80392;SDS011;69719;45.544;10.218;2023-12-07T02:21:26;7.13;;;4.38;;
80392;SDS011;69719;45.544;10.218;2023-12-07T02:24:03;9.73;;;5.35;;
80392;SDS011;69719;45.544;10.218;2023-12-07T02:26:34;9.60;;;4.82;;
80392;SDS011;69719;45.544;10.218;2023-12-07T02:29:00;9.07;;;5.20;;
80392;SDS011;69719;45.544;10.218;2023-12-07T02:31:26;10.48;;;5.13;;
80392;SDS011;69719;45.544;10.218;2023-12-07T02:33:52;8.35;;;4.50;;
80392;SDS011;69719;45.544;10.218;2023-12-07T02:36:19;7.22;;;4.32;;
80392;SDS011;69719;45.544;10.218;2023-12-07T02:38:47;8.98;;;4.15;;
80392;SDS011;69719;45.544;10.218;2023-12-07T02:41:16;10.38;;;4.50;;
80392;SDS011;69719;45.544;10.218;2023-12-07T02:43:43;8.30;;;4.47;;
80392;SDS011;69719;45.544;10.218;2023-12-07T02:46:08;7.97;;;4.43;;
80392;SDS011;69719;45.544;10.218;2023-12-07T02:48:34;7.75;;;4.18;;
80392;SDS011;69719;45.544;10.218;2023-12-07T02:50:59;10.57;;;4.38;;
80392;SDS011;69719;45.544;10.218;2023-12-07T02:53:25;10.20;;;4.93;;
80392;SDS011;69719;45.544;10.218;2023-12-07T02:55:50;6.25;;;3.83;;
80392;SDS011;69719;45.544;10.218;2023-12-07T02:58:16;10.27;;;3.88;;
80392;SDS011;69719;45.544;10.218;2023-12-07T03:00:41;6.57;;;4.00;;
80392;SDS011;69719;45.544;10.218;2023-12-07T03:03:07;8.98;;;4.30;;
80392;SDS011;69719;45.544;10.218;2023-12-07T03:05:32;8.13;;;4.00;;
80392;SDS011;69719;45.544;10.218;2023-12-07T03:07:58;7.43;;;4.03;;
80392;SDS011;69719;45.544;10.218;2023-12-07T03:10:23;7.07;;;3.80;;
80392;SDS011;69719;45.544;10.218;2023-12-07T03:12:49;6.03;;;3.17;;
80392;SDS011;69719;45.544;10.218;2023-12-07T03:15:14;4.90;;;3.28;;
80392;SDS011;69719;45.544;10.218;2023-12-07T03:17:40;6.50;;;2.80;;
80392;SDS011;69719;45.544;10.218;2023-12-07T03:20:05;9.68;;;3.75;;
80392;SDS011;69719;45.544;10.218;2023-12-07T03:22:32;5.25;;;2.95;;
80392;SDS011;69719;45.544;10.218;2023-12-07T03:24:57;6.13;;;3.50;;
80392;SDS011;69719;45.544;10.218;2023-12-07T03:27:23;5.45;;;2.85;;
80392;SDS011;69719;45.544;10.218;2023-12-07T03:29:48;5.72;;;3.30;;
80392;SDS011;69719;45.544;10.218;2023-12-07T03:32:14;6.47;;;3.03;;
80392;SDS011;69719;45.544;10.218;2023-12-07T03:34:39;3.95;;;2.75;;
80392;SDS011;69719;45.544;10.218;2023-12-07T03:37:05;5.00;;;3.13;;
80392;SDS011;69719;45.544;10.218;2023-12-07T03:39:30;4.78;;;2.83;;
80392;SDS011;69719;45.544;10.218;2023-12-07T03:41:57;6.20;;;2.95;;
80392;SDS011;69719;45.544;10.218;2023-12-07T03:44:23;5.68;;;3.38;;
80392;SDS011;69719;45.544;10.218;2023-12-07T03:46:51;6.18;;;3.25;;
80392;SDS011;69719;45.544;10.218;2023-12-07T03:49:17;5.13;;;2.75;;
80392;SDS011;69719;45.544;10.218;2023-12-07T03:51:42;7.13;;;3.28;;
80392;SDS011;69719;45.544;10.218;2023-12-07T03:54:08;6.18;;;3.30;;
80392;SDS011;69719;45.544;10.218;2023-12-07T03:56:33;7.90;;;2.88;;
80392;SDS011;69719;45.544;10.218;2023-12-07T03:58:59;5.40;;;3.10;;
80392;SDS011;69719;45.544;10.218;2023-12-07T04:01:25;6.30;;;2.88;;
80392;SDS011;69719;45.544;10.218;2023-12-07T04:03:52;5.88;;;3.00;;
80392;SDS011;69719;45.544;10.218;2023-12-07T04:06:20;5.35;;;3.15;;
80392;SDS011;69719;45.544;10.218;2023-12-07T04:08:46;5.22;;;2.47;;
80392;SDS011;69719;45.544;10.218;2023-12-07T04:11:12;7.40;;;2.88;;
80392;SDS011;69719;45.544;10.218;2023-12-07T04:13:39;3.70;;;2.50;;
80392;SDS011;69719;45.544;10.218;2023-12-07T04:16:05;5.80;;;2.72;;
80392;SDS011;69719;45.544;10.218;2023-12-07T04:18:31;4.57;;;2.30;;
80392;SDS011;69719;45.544;10.218;2023-12-07T04:20:56;7.05;;;2.22;;
80392;SDS011;69719;45.544;10.218;2023-12-07T04:23:22;3.10;;;2.25;;
80392;SDS011;69719;45.544;10.218;2023-12-07T04:25:48;3.63;;;2.30;;
80392;SDS011;69719;45.544;10.218;2023-12-07T04:28:14;4.88;;;2.10;;
80392;SDS011;69719;45.544;10.218;2023-12-07T04:30:39;3.75;;;2.08;;
80392;SDS011;69719;45.544;10.218;2023-12-07T04:33:05;6.07;;;2.53;;
80392;SDS011;69719;45.544;10.218;2023-12-07T04:35:30;6.05;;;2.38;;
80392;SDS011;69719;45.544;10.218;2023-12-07T04:37:56;4.00;;;2.33;;
80392;SDS011;69719;45.544;10.218;2023-12-07T04:40:22;4.28;;;2.10;;
80392;SDS011;69719;45.544;10.218;2023-12-07T04:42:49;2.85;;;1.90;;
80392;SDS011;69719;45.544;10.218;2023-12-07T04:45:14;5.13;;;1.92;;
80392;SDS011;69719;45.544;10.218;2023-12-07T04:47:40;4.90;;;2.00;;
80392;SDS011;69719;45.544;10.218;2023-12-07T04:50:06;6.95;;;2.30;;
80392;SDS011;69719;45.544;10.218;2023-12-07T04:52:32;3.92;;;1.92;;
80392;SDS011;69719;45.544;10.218;2023-12-07T04:54:58;4.88;;;2.03;;
80392;SDS011;69719;45.544;10.218;2023-12-07T04:57:24;4.40;;;2.20;;
80392;SDS011;69719;45.544;10.218;2023-12-07T04:59:50;4.47;;;2.45;;
80392;SDS011;69719;45.544;10.218;2023-12-07T05:02:15;4.38;;;2.35;;
80392;SDS011;69719;45.544;10.218;2023-12-07T05:04:42;3.42;;;2.05;;
80392;SDS011;69719;45.544;10.218;2023-12-07T05:07:08;4.32;;;2.47;;
80392;SDS011;69719;45.544;10.218;2023-12-07T05:09:34;4.85;;;2.50;;
80392;SDS011;69719;45.544;10.218;2023-12-07T05:12:00;4.28;;;2.80;;
80392;SDS011;69719;45.544;10.218;2023-12-07T05:14:25;4.60;;;2.20;;
80392;SDS011;69719;45.544;10.218;2023-12-07T05:16:51;3.75;;;2.55;;
80392;SDS011;69719;45.544;10.218;2023-12-07T05:19:22;6.55;;;2.40;;
80392;SDS011;69719;45.544;10.218;2023-12-07T05:21:47;4.35;;;2.38;;
80392;SDS011;69719;45.544;10.218;2023-12-07T05:24:13;4.40;;;2.30;;
80392;SDS011;69719;45.544;10.218;2023-12-07T05:26:42;4.10;;;2.22;;
80392;SDS011;69719;45.544;10.218;2023-12-07T05:29:09;4.93;;;2.55;;
80392;SDS011;69719;45.544;10.218;2023-12-07T05:31:35;4.05;;;2.15;;
80392;SDS011;69719;45.544;10.218;2023-12-07T05:34:01;3.17;;;2.03;;
80392;SDS011;69719;45.544;10.218;2023-12-07T05:36:27;6.97;;;2.28;;
80392;SDS011;69719;45.544;10.218;2023-12-07T05:38:53;3.58;;;2.28;;
80392;SDS011;69719;45.544;10.218;2023-12-07T05:41:18;5.65;;;2.40;;
80392;SDS011;69719;45.544;10.218;2023-12-07T05:43:44;5.43;;;2.40;;
80392;SDS011;69719;45.544;10.218;2023-12-07T05:46:09;3.60;;;2.30;;
80392;SDS011;69719;45.544;10.218;2023-12-07T05:48:35;4.68;;;1.98;;
80392;SDS011;69719;45.544;10.218;2023-12-07T05:51:04;3.17;;;2.10;;
80392;SDS011;69719;45.544;10.218;2023-12-07T05:53:30;3.25;;;1.88;;
80392;SDS011;69719;45.544;10.218;2023-12-07T05:55:57;7.82;;;2.30;;
80392;SDS011;69719;45.544;10.218;2023-12-07T05:58:23;3.67;;;2.30;;
80392;SDS011;69719;45.544;10.218;2023-12-07T06:00:49;5.13;;;2.72;;
80392;SDS011;69719;45.544;10.218;2023-12-07T06:03:14;5.30;;;2.97;;
80392;SDS011;69719;45.544;10.218;2023-12-07T06:05:40;4.07;;;2.22;;
80392;SDS011;69719;45.544;10.218;2023-12-07T06:08:06;4.90;;;2.00;;
80392;SDS011;69719;45.544;10.218;2023-12-07T06:10:32;5.53;;;2.80;;
80392;SDS011;69719;45.544;10.218;2023-12-07T06:12:58;4.25;;;1.95;;
80392;SDS011;69719;45.544;10.218;2023-12-07T06:15:25;4.18;;;2.10;;
80392;SDS011;69719;45.544;10.218;2023-12-07T06:17:52;4.80;;;2.55;;
80392;SDS011;69719;45.544;10.218;2023-12-07T06:20:18;7.45;;;2.65;;
80392;SDS011;69719;45.544;10.218;2023-12-07T06:22:43;6.97;;;2.67;;
80392;SDS011;69719;45.544;10.218;2023-12-07T06:25:09;5.40;;;2.70;;
80392;SDS011;69719;45.544;10.218;2023-12-07T06:27:35;9.68;;;3.05;;
80392;SDS011;69719;45.544;10.218;2023-12-07T06:30:00;8.73;;;2.67;;
80392;SDS011;69719;45.544;10.218;2023-12-07T06:32:26;6.32;;;2.95;;
80392;SDS011;69719;45.544;10.218;2023-12-07T06:34:52;9.68;;;3.20;;
80392;SDS011;69719;45.544;10.218;2023-12-07T06:37:18;8.40;;;3.03;;
80392;SDS011;69719;45.544;10.218;2023-12-07T06:39:45;9.02;;;3.75;;
80392;SDS011;69719;45.544;10.218;2023-12-07T06:42:11;7.95;;;3.58;;
80392;SDS011;69719;45.544;10.218;2023-12-07T06:44:36;7.97;;;2.55;;
80392;SDS011;69719;45.544;10.218;2023-12-07T06:47:02;11.93;;;3.28;;
80392;SDS011;69719;45.544;10.218;2023-12-07T06:49:29;10.38;;;3.00;;
80392;SDS011;69719;45.544;10.218;2023-12-07T06:51:55;10.63;;;3.30;;
80392;SDS011;69719;45.544;10.218;2023-12-07T06:54:21;6.57;;;2.92;;
80392;SDS011;69719;45.544;10.218;2023-12-07T06:56:47;8.38;;;3.40;;
80392;SDS011;69719;45.544;10.218;2023-12-07T06:59:12;8.68;;;3.42;;
80392;SDS011;69719;45.544;10.218;2023-12-07T07:01:39;10.00;;;3.53;;
80392;SDS011;69719;45.544;10.218;2023-12-07T07:04:05;6.20;;;3.08;;
80392;SDS011;69719;45.544;10.218;2023-12-07T07:06:30;8.05;;;3.25;;
80392;SDS011;69719;45.544;10.218;2023-12-07T07:08:56;7.40;;;2.80;;
80392;SDS011;69719;45.544;10.218;2023-12-07T07:11:21;6.93;;;3.28;;
80392;SDS011;69719;45.544;10.218;2023-12-07T07:13:47;9.05;;;2.85;;
80392;SDS011;69719;45.544;10.218;2023-12-07T07:16:12;8.00;;;3.15;;
80392;SDS011;69719;45.544;10.218;2023-12-07T07:18:38;9.65;;;3.25;;
80392;SDS011;69719;45.544;10.218;2023-12-07T07:21:05;7.03;;;3.08;;
80392;SDS011;69719;45.544;10.218;2023-12-07T07:23:34;6.10;;;2.97;;
80392;SDS011;69719;45.544;10.218;2023-12-07T07:26:00;9.55;;;3.20;;
80392;SDS011;69719;45.544;10.218;2023-12-07T07:28:26;11.70;;;3.13;;
80392;SDS011;69719;45.544;10.218;2023-12-07T07:30:51;13.52;;;5.88;;
80392;SDS011;69719;45.544;10.218;2023-12-07T07:33:18;11.75;;;3.67;;
80392;SDS011;69719;45.544;10.218;2023-12-07T07:35:44;11.88;;;3.08;;
80392;SDS011;69719;45.544;10.218;2023-12-07T07:38:09;9.70;;;3.22;;
80392;SDS011;69719;45.544;10.218;2023-12-07T07:40:35;7.07;;;3.10;;
80392;SDS011;69719;45.544;10.218;2023-12-07T07:43:01;8.95;;;3.35;;
80392;SDS011;69719;45.544;10.218;2023-12-07T07:45:27;10.02;;;3.42;;
80392;SDS011;69719;45.544;10.218;2023-12-07T07:47:52;9.52;;;3.30;;
80392;SDS011;69719;45.544;10.218;2023-12-07T07:50:19;10.35;;;2.80;;
80392;SDS011;69719;45.544;10.218;2023-12-07T07:52:44;8.70;;;3.47;;
80392;SDS011;69719;45.544;10.218;2023-12-07T07:55:10;12.57;;;3.53;;
80392;SDS011;69719;45.544;10.218;2023-12-07T07:57:37;10.43;;;3.63;;
80392;SDS011;69719;45.544;10.218;2023-12-07T08:00:02;7.35;;;3.17;;
80392;SDS011;69719;45.544;10.218;2023-12-07T08:02:30;9.38;;;3.45;;
80392;SDS011;69719;45.544;10.218;2023-12-07T08:04:56;10.88;;;3.45;;
80392;SDS011;69719;45.544;10.218;2023-12-07T08:07:22;6.50;;;3.00;;
80392;SDS011;69719;45.544;10.218;2023-12-07T08:09:47;9.02;;;3.45;;
80392;SDS011;69719;45.544;10.218;2023-12-07T08:12:13;11.48;;;3.65;;
80392;SDS011;69719;45.544;10.218;2023-12-07T08:14:38;14.02;;;4.05;;
80392;SDS011;69719;45.544;10.218;2023-12-07T08:17:04;10.52;;;3.92;;
80392;SDS011;69719;45.544;10.218;2023-12-07T08:19:30;13.65;;;3.58;;
80392;SDS011;69719;45.544;10.218;2023-12-07T08:21:55;11.63;;;4.07;;
80392;SDS011;69719;45.544;10.218;2023-12-07T08:24:21;11.90;;;3.42;;
80392;SDS011;69719;45.544;10.218;2023-12-07T08:26:46;8.63;;;3.28;;
80392;SDS011;69719;45.544;10.218;2023-12-07T08:29:12;7.10;;;3.63;;
80392;SDS011;69719;45.544;10.218;2023-12-07T08:31:39;7.22;;;3.17;;
80392;SDS011;69719;45.544;10.218;2023-12-07T08:34:05;8.85;;;3.50;;
80392;SDS011;69719;45.544;10.218;2023-12-07T08:36:31;9.30;;;3.72;;
80392;SDS011;69719;45.544;10.218;2023-12-07T08:38:56;6.97;;;3.15;;
80392;SDS011;69719;45.544;10.218;2023-12-07T08:41:22;8.93;;;3.53;;
80392;SDS011;69719;45.544;10.218;2023-12-07T08:43:48;7.93;;;3.78;;
80392;SDS011;69719;45.544;10.218;2023-12-07T08:46:14;6.70;;;3.50;;
80392;SDS011;69719;45.544;10.218;2023-12-07T08:48:39;6.95;;;3.88;;
80392;SDS011;69719;45.544;10.218;2023-12-07T08:51:05;8.10;;;3.58;;
80392;SDS011;69719;45.544;10.218;2023-12-07T08:53:33;10.00;;;4.05;;
80392;SDS011;69719;45.544;10.218;2023-12-07T08:55:58;12.88;;;4.07;;
80392;SDS011;69719;45.544;10.218;2023-12-07T08:58:27;10.35;;;4.63;;
80392;SDS011;69719;45.544;10.218;2023-12-07T09:00:52;13.32;;;6.50;;
80392;SDS011;69719;45.544;10.218;2023-12-07T09:03:18;18.30;;;6.70;;
80392;SDS011;69719;45.544;10.218;2023-12-07T09:05:44;14.30;;;6.68;;
80392;SDS011;69719;45.544;10.218;2023-12-07T09:08:09;12.32;;;5.70;;
80392;SDS011;69719;45.544;10.218;2023-12-07T09:10:35;9.13;;;4.95;;
80392;SDS011;69719;45.544;10.218;2023-12-07T09:13:00;15.20;;;5.07;;
80392;SDS011;69719;45.544;10.218;2023-12-07T09:15:26;8.85;;;4.82;;
80392;SDS011;69719;45.544;10.218;2023-12-07T09:17:51;11.23;;;4.88;;
80392;SDS011;69719;45.544;10.218;2023-12-07T09:20:18;16.15;;;5.68;;
80392;SDS011;69719;45.544;10.218;2023-12-07T09:22:44;12.68;;;5.63;;
80392;SDS011;69719;45.544;10.218;2023-12-07T09:25:11;9.93;;;5.47;;
80392;SDS011;69719;45.544;10.218;2023-12-07T09:27:37;12.25;;;5.32;;
80392;SDS011;69719;45.544;10.218;2023-12-07T09:30:09;12.82;;;5.07;;
80392;SDS011;69719;45.544;10.218;2023-12-07T09:32:41;14.65;;;6.05;;
80392;SDS011;69719;45.544;10.218;2023-12-07T09:35:08;16.23;;;5.45;;
80392;SDS011;69719;45.544;10.218;2023-12-07T09:37:40;13.98;;;5.70;;
80392;SDS011;69719;45.544;10.218;2023-12-07T09:40:15;12.40;;;5.40;;
80392;SDS011;69719;45.544;10.218;2023-12-07T09:42:45;14.93;;;6.15;;
80392;SDS011;69719;45.544;10.218;2023-12-07T09:45:11;11.27;;;5.00;;
80392;SDS011;69719;45.544;10.218;2023-12-07T09:47:38;11.57;;;5.22;;
80392;SDS011;69719;45.544;10.218;2023-12-07T09:50:06;11.95;;;3.50;;
80392;SDS011;69719;45.544;10.218;2023-12-07T09:52:37;6.93;;;3.30;;
80392;SDS011;69719;45.544;10.218;2023-12-07T09:55:03;7.63;;;3.70;;
80392;SDS011;69719;45.544;10.218;2023-12-07T09:57:29;8.43;;;4.43;;
80392;SDS011;69719;45.544;10.218;2023-12-07T09:59:55;5.63;;;3.50;;
80392;SDS011;69719;45.544;10.218;2023-12-07T10:02:21;8.63;;;4.07;;
80392;SDS011;69719;45.544;10.218;2023-12-07T10:04:48;12.35;;;4.00;;
80392;SDS011;69719;45.544;10.218;2023-12-07T10:07:14;10.23;;;3.90;;
80392;SDS011;69719;45.544;10.218;2023-12-07T10:09:40;8.90;;;4.38;;
80392;SDS011;69719;45.544;10.218;2023-12-07T10:12:06;11.00;;;4.43;;
80392;SDS011;69719;45.544;10.218;2023-12-07T10:14:33;12.07;;;5.13;;
80392;SDS011;69719;45.544;10.218;2023-12-07T10:16:59;13.23;;;5.70;;
80392;SDS011;69719;45.544;10.218;2023-12-07T10:19:25;13.20;;;5.07;;
80392;SDS011;69719;45.544;10.218;2023-12-07T10:21:52;16.23;;;5.45;;
80392;SDS011;69719;45.544;10.218;2023-12-07T10:24:19;13.20;;;5.07;;
80392;SDS011;69719;45.544;10.218;2023-12-07T10:26:46;14.95;;;5.47;;
80392;SDS011;69719;45.544;10.218;2023-12-07T10:29:12;27.30;;;6.72;;
80392;SDS011;69719;45.544;10.218;2023-12-07T10:31:38;49.35;;;9.93;;
80392;SDS011;69719;45.544;10.218;2023-12-07T10:34:04;28.60;;;7.82;;
80392;SDS011;69719;45.544;10.218;2023-12-07T10:36:30;16.15;;;6.95;;
80392;SDS011;69719;45.544;10.218;2023-12-07T10:38:57;23.00;;;6.85;;
80392;SDS011;69719;45.544;10.218;2023-12-07T10:41:23;19.40;;;6.38;;
80392;SDS011;69719;45.544;10.218;2023-12-07T10:43:53;13.30;;;5.78;;
80392;SDS011;69719;45.544;10.218;2023-12-07T10:46:23;20.98;;;6.22;;
80392;SDS011;69719;45.544;10.218;2023-12-07T10:48:56;17.77;;;6.32;;
80392;SDS011;69719;45.544;10.218;2023-12-07T10:54:04;12.00;;;5.30;;
80392;SDS011;69719;45.544;10.218;2023-12-07T10:59:02;21.45;;;9.70;;
80392;SDS011;69719;45.544;10.218;2023-12-07T11:01:27;13.85;;;5.88;;
80392;SDS011;69719;45.544;10.218;2023-12-07T11:03:56;13.70;;;5.30;;
80392;SDS011;69719;45.544;10.218;2023-12-07T11:06:40;14.63;;;5.65;;
80392;SDS011;69719;45.544;10.218;2023-12-07T11:09:08;10.48;;;5.18;;
80392;SDS011;69719;45.544;10.218;2023-12-07T11:11:37;12.65;;;5.55;;
80392;SDS011;69719;45.544;10.218;2023-12-07T11:14:07;12.55;;;4.28;;
80392;SDS011;69719;45.544;10.218;2023-12-07T11:16:39;9.02;;;4.45;;
80392;SDS011;69719;45.544;10.218;2023-12-07T11:22:00;8.85;;;4.15;;
80392;SDS011;69719;45.544;10.218;2023-12-07T11:24:27;8.60;;;3.88;;
80392;SDS011;69719;45.544;10.218;2023-12-07T11:26:53;10.07;;;4.40;;
80392;SDS011;69719;45.544;10.218;2023-12-07T11:29:20;13.57;;;4.38;;
80392;SDS011;69719;45.544;10.218;2023-12-07T11:31:46;13.60;;;3.63;;
80392;SDS011;69719;45.544;10.218;2023-12-07T11:34:13;7.30;;;3.67;;
80392;SDS011;69719;45.544;10.218;2023-12-07T11:36:39;6.82;;;3.92;;
80392;SDS011;69719;45.544;10.218;2023-12-07T11:41:45;12.18;;;4.10;;
80392;SDS011;69719;45.544;10.218;2023-12-07T11:44:15;9.77;;;4.05;;
80392;SDS011;69719;45.544;10.218;2023-12-07T11:46:42;10.90;;;3.95;;
80392;SDS011;69719;45.544;10.218;2023-12-07T11:49:08;7.95;;;3.47;;
80392;SDS011;69719;45.544;10.218;2023-12-07T11:51:36;12.38;;;4.85;;
80392;SDS011;69719;45.544;10.218;2023-12-07T11:54:02;15.07;;;4.70;;
80392;SDS011;69719;45.544;10.218;2023-12-07T11:56:28;20.67;;;4.70;;
80392;SDS011;69719;45.544;10.218;2023-12-07T11:58:53;9.82;;;3.22;;
80392;SDS011;69719;45.544;10.218;2023-12-07T12:01:21;9.60;;;3.42;;
80392;SDS011;69719;45.544;10.218;2023-12-07T12:03:49;12.15;;;3.63;;
80392;SDS011;69719;45.544;10.218;2023-12-07T12:06:15;10.70;;;3.97;;
80392;SDS011;69719;45.544;10.218;2023-12-07T12:08:40;14.75;;;6.63;;
80392;SDS011;69719;45.544;10.218;2023-12-07T12:11:07;13.20;;;3.47;;
80392;SDS011;69719;45.544;10.218;2023-12-07T12:13:34;11.32;;;3.60;;
80392;SDS011;69719;45.544;10.218;2023-12-07T12:16:00;9.23;;;4.18;;
80392;SDS011;69719;45.544;10.218;2023-12-07T12:18:26;12.32;;;4.97;;
80392;SDS011;69719;45.544;10.218;2023-12-07T12:20:55;12.32;;;3.88;;
80392;SDS011;69719;45.544;10.218;2023-12-07T12:23:23;10.63;;;4.07;;
80392;SDS011;69719;45.544;10.218;2023-12-07T12:25:49;16.83;;;4.90;;
80392;SDS011;69719;45.544;10.218;2023-12-07T12:28:15;23.65;;;7.75;;
80392;SDS011;69719;45.544;10.218;2023-12-07T12:30:43;23.10;;;9.65;;
80392;SDS011;69719;45.544;10.218;2023-12-07T12:33:09;20.58;;;8.63;;
80392;SDS011;69719;45.544;10.218;2023-12-07T12:35:35;26.10;;;11.25;;
80392;SDS011;69719;45.544;10.218;2023-12-07T12:38:00;24.60;;;11.25;;
80392;SDS011;69719;45.544;10.218;2023-12-07T12:40:27;21.70;;;9.93;;
80392;SDS011;69719;45.544;10.218;2023-12-07T12:42:54;25.00;;;11.13;;
80392;SDS011;69719;45.544;10.218;2023-12-07T12:45:20;18.38;;;9.48;;
80392;SDS011;69719;45.544;10.218;2023-12-07T12:47:46;23.35;;;11.15;;
80392;SDS011;69719;45.544;10.218;2023-12-07T12:53:05;17.35;;;8.18;;
80392;SDS011;69719;45.544;10.218;2023-12-07T12:55:32;19.63;;;7.78;;
80392;SDS011;69719;45.544;10.218;2023-12-07T12:58:02;22.13;;;9.00;;
80392;SDS011;69719;45.544;10.218;2023-12-07T13:00:29;20.20;;;9.98;;
80392;SDS011;69719;45.544;10.218;2023-12-07T13:02:56;23.38;;;11.73;;
80392;SDS011;69719;45.544;10.218;2023-12-07T13:05:22;23.95;;;9.50;;
80392;SDS011;69719;45.544;10.218;2023-12-07T13:07:48;23.42;;;9.00;;
80392;SDS011;69719;45.544;10.218;2023-12-07T13:10:14;20.75;;;7.55;;
80392;SDS011;69719;45.544;10.218;2023-12-07T13:12:40;16.42;;;7.63;;
80392;SDS011;69719;45.544;10.218;2023-12-07T13:15:06;16.88;;;7.55;;
80392;SDS011;69719;45.544;10.218;2023-12-07T13:17:32;17.60;;;8.02;;
80392;SDS011;69719;45.544;10.218;2023-12-07T13:19:58;18.58;;;8.20;;
80392;SDS011;69719;45.544;10.218;2023-12-07T13:22:23;18.20;;;7.70;;
80392;SDS011;69719;45.544;10.218;2023-12-07T13:24:49;16.85;;;7.15;;
80392;SDS011;69719;45.544;10.218;2023-12-07T13:27:17;21.10;;;7.38;;
80392;SDS011;69719;45.544;10.218;2023-12-07T13:29:43;22.98;;;10.13;;
80392;SDS011;69719;45.544;10.218;2023-12-07T13:32:09;60.42;;;22.17;;
80392;SDS011;69719;45.544;10.218;2023-12-07T13:34:35;21.50;;;8.98;;
80392;SDS011;69719;45.544;10.218;2023-12-07T13:37:00;25.02;;;8.50;;
80392;SDS011;69719;45.544;10.218;2023-12-07T13:39:26;21.92;;;8.48;;
80392;SDS011;69719;45.544;10.218;2023-12-07T13:41:55;18.00;;;8.00;;
80392;SDS011;69719;45.544;10.218;2023-12-07T13:44:21;19.85;;;7.63;;
80392;SDS011;69719;45.544;10.218;2023-12-07T13:46:49;17.30;;;7.80;;
80392;SDS011;69719;45.544;10.218;2023-12-07T13:49:14;22.25;;;8.75;;
80392;SDS011;69719;45.544;10.218;2023-12-07T13:51:40;21.33;;;8.95;;
80392;SDS011;69719;45.544;10.218;2023-12-07T13:54:06;19.55;;;9.00;;
80392;SDS011;69719;45.544;10.218;2023-12-07T13:56:36;21.33;;;8.35;;
80392;SDS011;69719;45.544;10.218;2023-12-07T13:59:01;13.82;;;8.02;;
80392;SDS011;69719;45.544;10.218;2023-12-07T14:01:27;29.58;;;12.63;;
80392;SDS011;69719;45.544;10.218;2023-12-07T14:03:53;15.05;;;7.90;;
80392;SDS011;69719;45.544;10.218;2023-12-07T14:06:22;17.02;;;7.75;;
80392;SDS011;69719;45.544;10.218;2023-12-07T14:08:51;13.13;;;6.95;;
80392;SDS011;69719;45.544;10.218;2023-12-07T14:11:17;20.42;;;7.85;;
80392;SDS011;69719;45.544;10.218;2023-12-07T14:13:43;16.33;;;6.85;;
80392;SDS011;69719;45.544;10.218;2023-12-07T14:16:11;41.65;;;15.50;;
80392;SDS011;69719;45.544;10.218;2023-12-07T14:18:37;153.65;;;48.70;;
80392;SDS011;69719;45.544;10.218;2023-12-07T14:21:03;145.57;;;54.20;;
80392;SDS011;69719;45.544;10.218;2023-12-07T14:23:28;32.53;;;11.77;;
80392;SDS011;69719;45.544;10.218;2023-12-07T14:25:54;32.92;;;9.50;;
80392;SDS011;69719;45.544;10.218;2023-12-07T14:28:23;23.55;;;9.38;;
80392;SDS011;69719;45.544;10.218;2023-12-07T14:30:49;31.02;;;9.65;;
80392;SDS011;69719;45.544;10.218;2023-12-07T14:33:15;26.83;;;9.02;;